Portales, NM (88130)

11:56 AM MDT on October 20, 2014 (GMT -0600)
S of ENMU | Change Station
CLOSE
Current Station
Personal Weather Station
Location: Portales, NM
Elevation: 4078 ft
Nearby Weather Stations

Elev 4078 ft 34.17 °N, 103.35 °W | Updated 2 seconds ago

Clear
Clear
70.2 °F
Feels Like 74 °F
N
1.1
Wind Variable Wind from North
Gusts 3.8 mph

Today
High -- | Low -- °F
--% Chance of Precip.
Yesterday
High -- | Low -- °F
Precip. -- in
7:02 AM 6:13 PM
Waning Crescent, 10% visible
Pressure 30.07 in
Visibility 10.0 miles
Clouds Clear
Heat Index 74 °F
Dew Point 60 °F
Humidity 70%
Rainfall 0.00 in
Snow Depth Not available.
UV 5 out of 12
Pollen 3.80 out of 12
Air Quality Not available.
Flu Activity Sporadic
METAR KCVS 201658Z AUTO VRB03KT 10SM CLR 19/14 A3018 RMK AO2 SLP182 T01900136 $

More Conditions Fewer Conditions

Pressure 30.07 in
Visibility 10.0 miles
Clouds Clear
Heat Index 74 °F
Dew Point 60 °F
Humidity 70%
Rainfall 0.00 in
Snow Depth Not available.
UV 5 out of 12
Pollen 3.80 out of 12
Air Quality Not available.
Flu Activity Sporadic
METAR KCVS 201658Z AUTO VRB03KT 10SM CLR 19/14 A3018 RMK AO2 SLP182 T01900136 $

More Conditions Fewer Conditions

10-Day Weather Forecast

Almanac

Astronomy

Oct. 20, 2014 Rise Set
Actual Time 7:02 AM MDT 6:13 PM MDT
Civil Twilight 6:37 AM MDT 6:38 PM MDT
Nautical Twilight 6:08 AM MDT 7:07 PM MDT
Astronomical Twilight 5:39 AM MDT 7:36 PM MDT
Moon 4:01 AM MDT 4:29 PM MDT
Length of Visible Light 12h 01m
Length of Day
11h 10m
Waning Crescent, 10% of the Moon is Illuminated
Today
Waning Crescent
Oct 23
New
Oct 30
First Quarter
Nov 6
Full
Nov 14
Last Quarter

Today's Extremes

State Highs State Lows

Community

WunderPhotos

Upload Photos

1,763,446 photos uploaded!

WunderBlogs® & News

Nearby

Snow Depth

Station Depth Elevation
Wesner Springs 3 in 11120 ft
Santa Fe 0 in 11445 ft
Tolby 0 in 10180 ft
Quemazon 0 in 9500 ft
North Costilla 0 in 10600 ft

Earthquake Activity

City Distance Mag. Time & Date
No recent earthquake activity has been reported nearby.
Minimum magnitude displayed is 2.5.

Coastal Water Temperatures

Place Temperature
No Stations Reporting

Nearby Weather Stations